Dragonera — 9HA2475 — position and weather

sailwx.info

Track history (hours):
 
Tides and Currents Weather Stations Pressure Air Temp Water Temp Dewpoint Dewpoint Depression Visibility Wind Speed Wind Dir Waves Ship Positions

Dragonera

Last reported at 2016-Dec-06 00:14 UTC. Time now 2016-Dec-10 22:26 UTC.
Position N 49°34' W 005°20'.

Length 180 m; draft 6.5 m.

Type: Cargo ship. MMSI: 248698000.

Date/timePositionNaut miles runAvg speedWind from/ knotsBaromVisibWave heightAir tempDewpointWater temp
2016-Dec-06 00:14N 49°34' W 005°20'2012.0
2016-Dec-05 22:33N 49°45' W 004°53'2512.0
2016-Dec-05 20:26N 49°52' W 004°15'1212.2
2016-Dec-05 19:28N 49°54' W 003°57'1212.9
2016-Dec-05 18:34N 49°57' W 003°40'1413.8
2016-Dec-05 17:33N 50°01' W 003°19'1514.6
2016-Dec-05 16:34N 50°05' W 002°57'4514.0
2016-Dec-05 13:23N 50°15' W 001°49'1011.8
2016-Dec-05 12:33N 50°17' W 001°34'1111.1
2016-Dec-05 11:33N 50°19' W 001°17'1410.8
2016-Dec-05 10:14N 50°22' W 000°55'912.1
2016-Dec-05 09:29N 50°24' W 000°41'1613.3
2016-Dec-05 08:15N 50°27' W 000°16'1114.3
2016-Dec-05 07:31N 50°30' W 000°00'1414.7
2016-Dec-05 06:34N 50°34' E 000°21'4113.3
2016-Dec-05 03:28N 50°58' E 001°14'1111.6
2016-Dec-05 02:34N 51°04' E 001°28'1212.5
2016-Dec-05 01:34N 51°12' E 001°43'1413.6
2016-Dec-05 00:34N 51°23' E 001°56'1312.6
2016-Dec-04 23:34N 51°21' E 002°16'1414.4
2016-Dec-04 22:33N 51°23' E 002°39'1313.1
2016-Dec-04 21:34N 51°24' E 002°59'1414.4
2016-Dec-04 20:33N 51°25' E 003°22'1413.7
2016-Dec-04 19:33N 51°24' E 003°44'0 0.4
2016-Dec-04 18:33N 51°24' E 003°45'0 0.0
2016-Dec-04 17:33N 51°24' E 003°45'0 0.2
2016-Dec-04 16:33N 51°24' E 003°45'0 0.0
2016-Dec-04 15:33N 51°24' E 003°45'0 0.0
2016-Dec-04 14:33N 51°24' E 003°45'0 0.1
2016-Dec-04 13:33N 51°24' E 003°45'0 0.2
2016-Dec-04 12:33N 51°24' E 003°45'0 0.1
2016-Dec-04 11:33N 51°24' E 003°45'0 0.0
2016-Dec-04 10:33N 51°24' E 003°45'0 0.0
2016-Dec-04 09:33N 51°24' E 003°45'0 0.1
2016-Dec-04 08:34N 51°24' E 003°45'7 6.7
2016-Dec-04 07:33N 51°26' E 003°35'9 9.1
2016-Dec-04 06:33N 51°33' E 003°25'9 8.7
2016-Dec-04 05:33N 51°40' E 003°18'9 8.7
2016-Dec-04 04:33N 51°46' E 003°07'5 5.2
2016-Dec-04 03:33N 51°47' E 002°59'7 5.9
2016-Dec-04 02:23N 51°47' E 002°47'5 5.4
2016-Dec-04 01:33N 51°49' E 002°40'24 7.6
2016-Dec-03 22:22N 52°11' E 002°55'8512.4
2016-Dec-03 15:32N 53°15' E 004°28'13812.5
2016-Dec-03 04:29N 54°01' E 008°07'1314.1
2016-Dec-03 03:33N 53°59' E 008°29'1211.8
2016-Dec-03 02:33N 53°51' E 008°45'1010.0
2016-Dec-03 01:34N 53°52' E 009°02'8 8.4
2016-Dec-03 00:33N 53°52' E 009°16'10 9.8
2016-Dec-02 23:34N 53°44' E 009°26'1312.6
2016-Dec-02 22:33N 53°34' E 009°39'9 8.8
2016-Dec-02 21:33N 53°33' E 009°53'0 0.5
2016-Dec-02 20:33N 53°33' E 009°53'0 0.4
2016-Dec-02 19:33N 53°32' E 009°53'1 1.1
2016-Dec-02 18:33N 53°31' E 009°54'0 0.0
2016-Dec-02 17:33N 53°31' E 009°54'0 0.0
2016-Dec-02 16:33N 53°31' E 009°54'0 0.0
2016-Dec-02 15:33N 53°31' E 009°54'0 0.0
2016-Dec-02 14:33N 53°31' E 009°54'0 0.0
2016-Dec-02 13:33N 53°31' E 009°54'0 0.0
2016-Dec-02 12:33N 53°31' E 009°54'0 0.0
2016-Dec-02 11:33N 53°31' E 009°54'0 0.0
2016-Dec-02 10:33N 53°31' E 009°54'0 0.0
2016-Dec-02 09:33N 53°31' E 009°54'0 0.0
2016-Dec-02 08:33N 53°31' E 009°54'0 0.0
2016-Dec-02 07:33N 53°31' E 009°54'0 0.0
2016-Dec-02 06:33N 53°31' E 009°54'0 0.0
2016-Dec-02 05:33N 53°31' E 009°54'0 0.0
2016-Dec-02 04:33N 53°31' E 009°54'0 0.0
2016-Dec-02 03:30N 53°31' E 009°54'0 0.0
2016-Dec-02 02:33N 53°31' E 009°54'0 0.0
2016-Dec-02 01:33N 53°31' E 009°54'0 0.0
2016-Dec-02 00:33N 53°31' E 009°54'0 0.0
2016-Dec-01 23:33N 53°31' E 009°54'0 0.0
2016-Dec-01 22:33N 53°31' E 009°54'0 0.0
2016-Dec-01 21:33N 53°31' E 009°54'0 0.0
2016-Dec-01 20:33N 53°31' E 009°54'0 0.0
2016-Dec-01 19:33N 53°31' E 009°54'0 0.0
2016-Dec-01 18:30N 53°31' E 009°54'0 0.0
2016-Dec-01 17:33N 53°31' E 009°54'0 0.0
2016-Dec-01 16:33N 53°31' E 009°54'0 0.0
2016-Dec-01 15:30N 53°31' E 009°54'0 0.0
2016-Dec-01 14:33N 53°31' E 009°54'0 0.0
2016-Dec-01 13:33N 53°31' E 009°54'0 0.0
2016-Dec-01 12:33N 53°31' E 009°54'0 0.0
2016-Dec-01 11:33N 53°31' E 009°54'0 0.0
2016-Dec-01 10:33N 53°31' E 009°54'0 0.0
2016-Dec-01 09:33N 53°31' E 009°54'0 0.0
2016-Dec-01 08:30N 53°31' E 009°54'0 0.0
2016-Dec-01 07:33N 53°31' E 009°54'0 0.0
2016-Dec-01 06:33N 53°31' E 009°54'0 0.0
2016-Dec-01 05:33N 53°31' E 009°54'0 0.0
2016-Dec-01 04:33N 53°31' E 009°54'0 0.0
2016-Dec-01 03:33N 53°31' E 009°54'0 0.0
2016-Dec-01 02:33N 53°31' E 009°54'0 0.0
2016-Dec-01 01:33N 53°31' E 009°54'0 0.0
2016-Dec-01 00:30N 53°31' E 009°54'0 0.0
2016-Nov-30 23:33N 53°31' E 009°54'0 0.0
2016-Nov-30 22:33N 53°31' E 009°54'0 0.0
2016-Nov-30 21:33N 53°31' E 009°54'0 0.0
2016-Nov-30 20:33N 53°31' E 009°54'0 0.0
2016-Nov-30 19:33N 53°31' E 009°54'0 0.0
2016-Nov-30 18:33N 53°31' E 009°54'0 0.0
2016-Nov-30 17:33N 53°31' E 009°54'0 0.0
2016-Nov-30 16:33N 53°31' E 009°54'0 0.0
2016-Nov-30 15:33N 53°31' E 009°54'0 0.0
2016-Nov-30 14:33N 53°31' E 009°54'0 0.0
2016-Nov-30 13:33N 53°31' E 009°54'0 0.0
2016-Nov-30 12:33N 53°31' E 009°54'0 0.0
2016-Nov-30 11:33N 53°31' E 009°54'0 0.0
2016-Nov-30 10:33N 53°31' E 009°54'0 0.0
2016-Nov-30 09:33N 53°31' E 009°54'0 0.0
2016-Nov-30 08:33N 53°31' E 009°54'0 0.0
2016-Nov-30 07:33N 53°31' E 009°54'0 0.0
2016-Nov-30 06:33N 53°31' E 009°54'0 0.0
2016-Nov-30 05:33N 53°31' E 009°54'0 0.0
2016-Nov-30 04:33N 53°31' E 009°54'0 0.0
2016-Nov-30 03:33N 53°31' E 009°54'0 0.0
2016-Nov-30 02:33N 53°31' E 009°54'0 0.1
2016-Nov-30 01:33N 53°31' E 009°54'5 4.6
2016-Nov-30 00:33N 53°33' E 009°47'1110.9
2016-Nov-29 23:33N 53°39' E 009°31'1211.9
2016-Nov-29 22:33N 53°49' E 009°22'1010.4
2016-Nov-29 21:33N 53°52' E 009°05'1211.7
2016-Nov-29 20:33N 53°52' E 008°45'1111.4
2016-Nov-29 19:33N 53°58' E 008°29'1212.3
2016-Nov-29 18:32N 53°59' E 008°08'3 2.8
2016-Nov-29 17:24N 54°02' E 008°10'0 0.2
2016-Nov-29 16:33N 54°02' E 008°10'0 0.0
2016-Nov-29 14:33N 54°02' E 008°09'0 0.1
2016-Nov-29 13:30N 54°02' E 008°10'0 0.1
2016-Nov-29 12:06N 54°02' E 008°10'0 0.0
2016-Nov-29 11:33N 54°02' E 008°10'0 0.0
2016-Nov-29 10:18N 54°02' E 008°10'0 0.0
2016-Nov-29 09:33N 54°02' E 008°10'0 0.0
2016-Nov-29 08:30N 54°02' E 008°10'0 0.0
2016-Nov-29 06:24N 54°02' E 008°10'0 0.2
2016-Nov-29 05:30N 54°02' E 008°10'0 0.1
2016-Nov-29 04:15N 54°02' E 008°09'0 0.0
2016-Nov-28 18:33N 54°02' E 008°10'0 0.0
2016-Nov-28 15:03N 54°02' E 008°09'0 0.0
2016-Nov-28 11:18N 54°02' E 008°09'0 0.0
2016-Nov-28 03:33N 54°02' E 008°09'0 0.0
2016-Nov-28 02:33N 54°02' E 008°09'0 0.0
2016-Nov-28 01:18N 54°02' E 008°09'0 0.1
2016-Nov-27 23:30N 54°02' E 008°10'0 0.0
2016-Nov-27 18:09N 54°02' E 008°10'0 0.1
2016-Nov-27 17:15N 54°02' E 008°09'0 0.0
2016-Nov-27 13:24N 54°02' E 008°09'3 3.8
2016-Nov-27 12:33N 54°02' E 008°04'5810.8
2016-Nov-27 07:12N 54°47' E 007°02'912.2
2016-Nov-27 06:28N 54°55' E 006°54'1111.8
2016-Nov-27 05:33N 55°03' E 006°41'1311.7
2016-Nov-27 04:29N 55°12' E 006°26'  
Track history (hours):
 
Tides and Currents Weather Stations Pressure Air Temp Water Temp Dewpoint Dewpoint Depression Visibility Wind Speed Wind Dir Waves Ship Positions

Dragonera

Last reported at 2016-Dec-06 00:14 UTC. Time now 2016-Dec-10 22:26 UTC.
Position N 49°34' W 005°20'.

Length 180 m; draft 6.5 m.

Type: Cargo ship. MMSI: 248698000.

Date/timePositionNaut miles runAvg speedWind from/ knotsBaromVisibWave heightAir tempDewpointWater temp
2016-Dec-06 00:14N 49°34' W 005°20'2012.0
2016-Dec-05 22:33N 49°45' W 004°53'2512.0
2016-Dec-05 20:26N 49°52' W 004°15'1212.2
2016-Dec-05 19:28N 49°54' W 003°57'1212.9
2016-Dec-05 18:34N 49°57' W 003°40'1413.8
2016-Dec-05 17:33N 50°01' W 003°19'1514.6
2016-Dec-05 16:34N 50°05' W 002°57'4514.0
2016-Dec-05 13:23N 50°15' W 001°49'1011.8
2016-Dec-05 12:33N 50°17' W 001°34'1111.1
2016-Dec-05 11:33N 50°19' W 001°17'1410.8
2016-Dec-05 10:14N 50°22' W 000°55'912.1
2016-Dec-05 09:29N 50°24' W 000°41'1613.3
2016-Dec-05 08:15N 50°27' W 000°16'1114.3
2016-Dec-05 07:31N 50°30' W 000°00'1414.7
2016-Dec-05 06:34N 50°34' E 000°21'4113.3
2016-Dec-05 03:28N 50°58' E 001°14'1111.6
2016-Dec-05 02:34N 51°04' E 001°28'1212.5
2016-Dec-05 01:34N 51°12' E 001°43'1413.6
2016-Dec-05 00:34N 51°23' E 001°56'1312.6
2016-Dec-04 23:34N 51°21' E 002°16'1414.4
2016-Dec-04 22:33N 51°23' E 002°39'1313.1
2016-Dec-04 21:34N 51°24' E 002°59'1414.4
2016-Dec-04 20:33N 51°25' E 003°22'1413.7
2016-Dec-04 19:33N 51°24' E 003°44'0 0.4
2016-Dec-04 18:33N 51°24' E 003°45'0 0.0
2016-Dec-04 17:33N 51°24' E 003°45'0 0.2
2016-Dec-04 16:33N 51°24' E 003°45'0 0.0
2016-Dec-04 15:33N 51°24' E 003°45'0 0.0
2016-Dec-04 14:33N 51°24' E 003°45'0 0.1
2016-Dec-04 13:33N 51°24' E 003°45'0 0.2
2016-Dec-04 12:33N 51°24' E 003°45'0 0.1
2016-Dec-04 11:33N 51°24' E 003°45'0 0.0
2016-Dec-04 10:33N 51°24' E 003°45'0 0.0
2016-Dec-04 09:33N 51°24' E 003°45'0 0.1
2016-Dec-04 08:34N 51°24' E 003°45'7 6.7
2016-Dec-04 07:33N 51°26' E 003°35'9 9.1
2016-Dec-04 06:33N 51°33' E 003°25'9 8.7
2016-Dec-04 05:33N 51°40' E 003°18'9 8.7
2016-Dec-04 04:33N 51°46' E 003°07'5 5.2
2016-Dec-04 03:33N 51°47' E 002°59'7 5.9
2016-Dec-04 02:23N 51°47' E 002°47'5 5.4
2016-Dec-04 01:33N 51°49' E 002°40'24 7.6
2016-Dec-03 22:22N 52°11' E 002°55'8512.4
2016-Dec-03 15:32N 53°15' E 004°28'13812.5
2016-Dec-03 04:29N 54°01' E 008°07'1314.1
2016-Dec-03 03:33N 53°59' E 008°29'1211.8
2016-Dec-03 02:33N 53°51' E 008°45'1010.0
2016-Dec-03 01:34N 53°52' E 009°02'8 8.4
2016-Dec-03 00:33N 53°52' E 009°16'10 9.8
2016-Dec-02 23:34N 53°44' E 009°26'1312.6
2016-Dec-02 22:33N 53°34' E 009°39'9 8.8
2016-Dec-02 21:33N 53°33' E 009°53'0 0.5
2016-Dec-02 20:33N 53°33' E 009°53'0 0.4
2016-Dec-02 19:33N 53°32' E 009°53'1 1.1
2016-Dec-02 18:33N 53°31' E 009°54'0 0.0
2016-Dec-02 17:33N 53°31' E 009°54'0 0.0
2016-Dec-02 16:33N 53°31' E 009°54'0 0.0
2016-Dec-02 15:33N 53°31' E 009°54'0 0.0
2016-Dec-02 14:33N 53°31' E 009°54'0 0.0
2016-Dec-02 13:33N 53°31' E 009°54'0 0.0
2016-Dec-02 12:33N 53°31' E 009°54'0 0.0
2016-Dec-02 11:33N 53°31' E 009°54'0 0.0
2016-Dec-02 10:33N 53°31' E 009°54'0 0.0
2016-Dec-02 09:33N 53°31' E 009°54'0 0.0
2016-Dec-02 08:33N 53°31' E 009°54'0 0.0
2016-Dec-02 07:33N 53°31' E 009°54'0 0.0
2016-Dec-02 06:33N 53°31' E 009°54'0 0.0
2016-Dec-02 05:33N 53°31' E 009°54'0 0.0
2016-Dec-02 04:33N 53°31' E 009°54'0 0.0
2016-Dec-02 03:30N 53°31' E 009°54'0 0.0
2016-Dec-02 02:33N 53°31' E 009°54'0 0.0
2016-Dec-02 01:33N 53°31' E 009°54'0 0.0
2016-Dec-02 00:33N 53°31' E 009°54'0 0.0
2016-Dec-01 23:33N 53°31' E 009°54'0 0.0
2016-Dec-01 22:33N 53°31' E 009°54'0 0.0
2016-Dec-01 21:33N 53°31' E 009°54'0 0.0
2016-Dec-01 20:33N 53°31' E 009°54'0 0.0
2016-Dec-01 19:33N 53°31' E 009°54'0 0.0
2016-Dec-01 18:30N 53°31' E 009°54'0 0.0
2016-Dec-01 17:33N 53°31' E 009°54'0 0.0
2016-Dec-01 16:33N 53°31' E 009°54'0 0.0
2016-Dec-01 15:30N 53°31' E 009°54'0 0.0
2016-Dec-01 14:33N 53°31' E 009°54'0 0.0
2016-Dec-01 13:33N 53°31' E 009°54'0 0.0
2016-Dec-01 12:33N 53°31' E 009°54'0 0.0
2016-Dec-01 11:33N 53°31' E 009°54'0 0.0
2016-Dec-01 10:33N 53°31' E 009°54'0 0.0
2016-Dec-01 09:33N 53°31' E 009°54'0 0.0
2016-Dec-01 08:30N 53°31' E 009°54'0 0.0
2016-Dec-01 07:33N 53°31' E 009°54'0 0.0
2016-Dec-01 06:33N 53°31' E 009°54'0 0.0
2016-Dec-01 05:33N 53°31' E 009°54'0 0.0
2016-Dec-01 04:33N 53°31' E 009°54'0 0.0
2016-Dec-01 03:33N 53°31' E 009°54'0 0.0
2016-Dec-01 02:33N 53°31' E 009°54'0 0.0
2016-Dec-01 01:33N 53°31' E 009°54'0 0.0
2016-Dec-01 00:30N 53°31' E 009°54'0 0.0
2016-Nov-30 23:33N 53°31' E 009°54'0 0.0
2016-Nov-30 22:33N 53°31' E 009°54'0 0.0
2016-Nov-30 21:33N 53°31' E 009°54'0 0.0
2016-Nov-30 20:33N 53°31' E 009°54'0 0.0
2016-Nov-30 19:33N 53°31' E 009°54'0 0.0
2016-Nov-30 18:33N 53°31' E 009°54'0 0.0
2016-Nov-30 17:33N 53°31' E 009°54'0 0.0
2016-Nov-30 16:33N 53°31' E 009°54'0 0.0
2016-Nov-30 15:33N 53°31' E 009°54'0 0.0
2016-Nov-30 14:33N 53°31' E 009°54'0 0.0
2016-Nov-30 13:33N 53°31' E 009°54'0 0.0
2016-Nov-30 12:33N 53°31' E 009°54'0 0.0
2016-Nov-30 11:33N 53°31' E 009°54'0 0.0
2016-Nov-30 10:33N 53°31' E 009°54'0 0.0
2016-Nov-30 09:33N 53°31' E 009°54'0 0.0
2016-Nov-30 08:33N 53°31' E 009°54'0 0.0
2016-Nov-30 07:33N 53°31' E 009°54'0 0.0
2016-Nov-30 06:33N 53°31' E 009°54'0 0.0
2016-Nov-30 05:33N 53°31' E 009°54'0 0.0
2016-Nov-30 04:33N 53°31' E 009°54'0 0.0
2016-Nov-30 03:33N 53°31' E 009°54'0 0.0
2016-Nov-30 02:33N 53°31' E 009°54'0 0.1
2016-Nov-30 01:33N 53°31' E 009°54'5 4.6
2016-Nov-30 00:33N 53°33' E 009°47'1110.9
2016-Nov-29 23:33N 53°39' E 009°31'1211.9
2016-Nov-29 22:33N 53°49' E 009°22'1010.4
2016-Nov-29 21:33N 53°52' E 009°05'1211.7
2016-Nov-29 20:33N 53°52' E 008°45'1111.4
2016-Nov-29 19:33N 53°58' E 008°29'1212.3
2016-Nov-29 18:32N 53°59' E 008°08'3 2.8
2016-Nov-29 17:24N 54°02' E 008°10'0 0.2
2016-Nov-29 16:33N 54°02' E 008°10'0 0.0
2016-Nov-29 14:33N 54°02' E 008°09'0 0.1
2016-Nov-29 13:30N 54°02' E 008°10'0 0.1
2016-Nov-29 12:06N 54°02' E 008°10'0 0.0
2016-Nov-29 11:33N 54°02' E 008°10'0 0.0
2016-Nov-29 10:18N 54°02' E 008°10'0 0.0
2016-Nov-29 09:33N 54°02' E 008°10'0 0.0
2016-Nov-29 08:30N 54°02' E 008°10'0 0.0
2016-Nov-29 06:24N 54°02' E 008°10'0 0.2
2016-Nov-29 05:30N 54°02' E 008°10'0 0.1
2016-Nov-29 04:15N 54°02' E 008°09'0 0.0
2016-Nov-28 18:33N 54°02' E 008°10'0 0.0
2016-Nov-28 15:03N 54°02' E 008°09'0 0.0
2016-Nov-28 11:18N 54°02' E 008°09'0 0.0
2016-Nov-28 03:33N 54°02' E 008°09'0 0.0
2016-Nov-28 02:33N 54°02' E 008°09'0 0.0
2016-Nov-28 01:18N 54°02' E 008°09'0 0.1
2016-Nov-27 23:30N 54°02' E 008°10'0 0.0
2016-Nov-27 18:09N 54°02' E 008°10'0 0.1
2016-Nov-27 17:15N 54°02' E 008°09'0 0.0
2016-Nov-27 13:24N 54°02' E 008°09'3 3.8
2016-Nov-27 12:33N 54°02' E 008°04'5810.8
2016-Nov-27 07:12N 54°47' E 007°02'912.2
2016-Nov-27 06:28N 54°55' E 006°54'1111.8
2016-Nov-27 05:33N 55°03' E 006°41'1311.7
2016-Nov-27 04:29N 55°12' E 006°26'  

Dump ship's entire track history